createdAt,value
2023-02-23T00:01:11.627Z,19.67
2023-02-23T00:03:40.489Z,19.40
2023-02-23T00:06:08.178Z,19.63
2023-02-23T00:08:36.398Z,19.98
2023-02-23T00:11:03.822Z,18.00
2023-02-23T00:13:30.201Z,20.30
2023-02-23T00:15:56.567Z,19.17
2023-02-23T00:18:23.126Z,18.27
2023-02-23T00:20:58.059Z,19.85
2023-02-23T00:23:27.390Z,18.85
2023-02-23T00:25:53.753Z,19.50
2023-02-23T00:28:20.144Z,19.27
2023-02-23T00:30:46.710Z,19.17
2023-02-23T00:33:13.047Z,19.48
2023-02-23T00:35:39.470Z,18.98
2023-02-23T00:38:05.789Z,18.17
2023-02-23T00:40:32.162Z,18.80
2023-02-23T00:42:58.536Z,17.88
2023-02-23T00:45:24.851Z,17.77
2023-02-23T00:47:51.183Z,17.27
2023-02-23T00:50:18.134Z,18.42
2023-02-23T00:52:44.696Z,17.75
2023-02-23T00:55:12.420Z,17.75
2023-02-23T00:57:38.825Z,16.27
2023-02-23T01:00:23.739Z,18.10
2023-02-23T01:02:50.375Z,18.77
2023-02-23T01:05:16.888Z,17.65
2023-02-23T01:07:46.455Z,17.92
2023-02-23T01:10:19.754Z,17.80
2023-02-23T01:12:55.053Z,16.92
2023-02-23T01:15:21.549Z,17.52
2023-02-23T01:17:47.980Z,17.70
2023-02-23T01:20:20.444Z,17.23
2023-02-23T01:22:49.092Z,16.75
2023-02-23T01:25:16.542Z,17.25
2023-02-23T01:27:46.058Z,17.33
2023-02-23T01:30:14.835Z,16.70
2023-02-23T01:32:41.695Z,16.88
2023-02-23T01:35:08.817Z,17.75
2023-02-23T01:37:36.056Z,16.67
2023-02-23T01:40:10.683Z,17.10
2023-02-23T01:42:38.586Z,16.87
2023-02-23T01:45:17.213Z,16.83
2023-02-23T01:47:44.006Z,15.82
2023-02-23T01:50:11.854Z,16.40
2023-02-23T01:52:40.055Z,16.23
2023-02-23T01:55:06.562Z,16.17
2023-02-23T01:57:32.892Z,15.85
2023-02-23T02:00:01.624Z,15.95
2023-02-23T02:02:33.389Z,15.98
2023-02-23T02:05:01.797Z,15.52
2023-02-23T02:07:29.831Z,15.40
2023-02-23T02:10:11.852Z,16.02
2023-02-23T02:12:39.198Z,15.48
2023-02-23T02:15:07.651Z,15.05
2023-02-23T02:17:40.133Z,16.67
2023-02-23T02:20:18.645Z,14.77
2023-02-23T02:22:51.420Z,16.15
2023-02-23T02:25:20.733Z,15.10
2023-02-23T02:28:04.129Z,15.40
2023-02-23T02:30:45.476Z,15.05
2023-02-23T02:33:19.143Z,14.75
2023-02-23T02:35:57.558Z,15.73
2023-02-23T02:38:47.016Z,14.38
2023-02-23T02:41:13.348Z,15.07
2023-02-23T02:43:53.517Z,14.70
2023-02-23T02:46:23.107Z,14.80
2023-02-23T02:48:49.558Z,14.90
2023-02-23T02:51:18.551Z,14.15
2023-02-23T02:53:45.105Z,15.82
2023-02-23T02:56:13.042Z,15.38
2023-02-23T02:58:42.344Z,15.00
2023-02-23T03:01:28.169Z,15.15
2023-02-23T03:04:13.096Z,13.80
2023-02-23T03:07:04.147Z,13.95
2023-02-23T03:09:58.025Z,12.93
2023-02-23T03:12:55.015Z,14.00
2023-02-23T03:15:46.158Z,14.13
2023-02-23T03:18:41.305Z,14.40
2023-02-23T03:21:30.757Z,14.05
2023-02-23T03:24:29.158Z,14.55
2023-02-23T03:27:35.561Z,13.82
2023-02-23T03:30:24.768Z,14.77
2023-02-23T03:33:11.948Z,13.43
2023-02-23T03:36:25.972Z,14.00
2023-02-23T03:39:19.369Z,13.95
2023-02-23T03:42:05.830Z,14.30
2023-02-23T03:44:59.703Z,13.80
2023-02-23T03:47:48.305Z,14.55
2023-02-23T03:50:43.153Z,14.32
2023-02-23T03:53:29.423Z,14.18
2023-02-23T03:56:15.808Z,14.15
2023-02-23T03:59:26.832Z,15.80
2023-02-23T04:02:13.629Z,14.75
2023-02-23T04:04:59.605Z,15.30
2023-02-23T04:10:29.787Z,13.75
2023-02-23T04:13:17.154Z,14.80
2023-02-23T04:15:57.672Z,13.90
2023-02-23T04:18:25.674Z,15.32
2023-02-23T04:20:52.126Z,14.43
2023-02-23T04:23:18.731Z,15.00
2023-02-23T04:25:45.104Z,14.45
2023-02-23T04:28:11.558Z,13.98
2023-02-23T04:30:40.913Z,13.52
2023-02-23T04:33:07.292Z,14.77
2023-02-23T04:35:35.147Z,14.40
2023-02-23T04:38:01.620Z,13.80
2023-02-23T04:40:28.154Z,13.48
2023-02-23T04:42:55.141Z,15.43
2023-02-23T04:45:22.185Z,17.08
2023-02-23T04:47:53.896Z,15.48
2023-02-23T04:50:20.445Z,15.20
2023-02-23T04:52:47.114Z,16.20
2023-02-23T04:55:17.963Z,16.25
2023-02-23T04:57:44.490Z,15.57
2023-02-23T05:00:12.728Z,15.98
2023-02-23T05:02:39.516Z,16.05
2023-02-23T05:05:07.149Z,14.85
2023-02-23T05:07:33.992Z,15.85
2023-02-23T05:10:00.445Z,15.65
2023-02-23T05:12:29.791Z,15.00
2023-02-23T05:14:56.455Z,14.50
2023-02-23T05:17:23.012Z,16.73
2023-02-23T05:19:49.333Z,16.98
2023-02-23T05:22:15.719Z,17.92
2023-02-23T05:24:42.386Z,17.50
2023-02-23T05:27:09.635Z,15.93
2023-02-23T05:29:36.012Z,16.65
2023-02-23T05:32:02.595Z,17.75
2023-02-23T05:34:29.335Z,15.90
2023-02-23T05:36:55.684Z,15.38
2023-02-23T05:39:22.459Z,14.48
2023-02-23T05:41:48.874Z,13.95
2023-02-23T05:44:15.576Z,14.27
2023-02-23T05:46:42.090Z,14.80
2023-02-23T05:49:08.561Z,13.35
2023-02-23T05:51:35.064Z,12.52
2023-02-23T05:54:01.745Z,13.00
2023-02-23T05:56:28.452Z,12.68
2023-02-23T05:58:55.824Z,12.18
2023-02-23T06:01:22.474Z,12.23
2023-02-23T06:03:49.178Z,12.10
2023-02-23T06:06:15.643Z,11.73
2023-02-23T06:08:42.609Z,11.43
2023-02-23T06:11:09.596Z,11.45
2023-02-23T06:13:35.979Z,11.10
2023-02-23T06:16:02.581Z,11.95
2023-02-23T06:18:29.440Z,11.20
2023-02-23T06:20:58.442Z,10.55
2023-02-23T06:23:24.786Z,11.07
2023-02-23T06:25:51.708Z,10.38
2023-02-23T06:28:18.320Z,11.13
2023-02-23T06:30:46.771Z,11.57
2023-02-23T06:33:13.169Z,12.32
2023-02-23T06:35:39.800Z,12.77
2023-02-23T06:38:06.319Z,13.52
2023-02-23T06:40:33.348Z,15.40
2023-02-23T06:43:00.478Z,15.00
2023-02-23T06:45:26.941Z,15.23
2023-02-23T06:47:53.751Z,14.35
2023-02-23T06:50:20.163Z,13.52
2023-02-23T06:52:46.624Z,11.70
2023-02-23T06:55:16.115Z,12.10
2023-02-23T06:57:44.077Z,11.82
2023-02-23T07:00:15.087Z,12.05
2023-02-23T07:02:42.008Z,11.45
2023-02-23T07:05:08.663Z,12.15
2023-02-23T07:07:35.097Z,11.60
2023-02-23T07:10:01.489Z,11.40
2023-02-23T07:12:27.963Z,11.10
2023-02-23T07:14:54.478Z,11.38
2023-02-23T07:17:20.862Z,11.15
2023-02-23T07:19:49.681Z,10.93
2023-02-23T07:22:16.054Z,11.40
2023-02-23T07:24:42.365Z,10.93
2023-02-23T07:27:08.764Z,10.93
2023-02-23T07:29:35.099Z,10.07
2023-02-23T07:32:04.226Z,11.02
2023-02-23T07:34:30.676Z,10.82
2023-02-23T07:36:57.005Z,10.48
2023-02-23T07:39:23.384Z,10.35
2023-02-23T07:41:52.684Z,10.50
2023-02-23T07:44:19.680Z,10.25
2023-02-23T07:46:46.561Z,10.60
2023-02-23T07:49:13.907Z,10.55
2023-02-23T07:51:40.960Z,10.95
2023-02-23T07:54:07.741Z,10.50
2023-02-23T07:56:35.473Z,9.48
2023-02-23T07:59:02.307Z,9.60
2023-02-23T08:01:28.750Z,9.85
2023-02-23T08:03:55.397Z,10.10
2023-02-23T08:06:21.823Z,10.65
2023-02-23T08:12:19.920Z,9.85
2023-02-23T08:14:46.753Z,9.27
2023-02-23T08:17:13.204Z,9.75
2023-02-23T08:19:40.125Z,8.95
2023-02-23T08:22:08.959Z,9.82
2023-02-23T08:24:37.090Z,9.25
2023-02-23T08:27:03.529Z,9.93
2023-02-23T08:29:30.240Z,8.43
2023-02-23T08:31:56.857Z,10.02
2023-02-23T08:34:23.978Z,9.48
2023-02-23T08:36:50.328Z,9.65
2023-02-23T08:39:16.998Z,8.90
2023-02-23T08:41:43.443Z,8.98
2023-02-23T08:44:10.002Z,9.52
2023-02-23T08:46:36.347Z,8.63
2023-02-23T08:49:04.686Z,8.05
2023-02-23T08:51:31.324Z,7.72
2023-02-23T08:53:57.674Z,8.18
2023-02-23T08:56:25.514Z,8.40
2023-02-23T08:58:53.035Z,8.63
2023-02-23T09:01:22.041Z,8.05
2023-02-23T09:03:48.809Z,8.88
2023-02-23T09:06:17.516Z,8.43
2023-02-23T09:08:44.042Z,8.10
2023-02-23T09:11:10.420Z,8.40
2023-02-23T09:13:36.915Z,8.30
2023-02-23T09:16:07.864Z,8.82
2023-02-23T09:18:34.776Z,8.43
2023-02-23T09:21:06.485Z,9.20
2023-02-23T09:23:34.116Z,8.52
2023-02-23T09:26:06.858Z,8.73
2023-02-23T09:28:34.161Z,9.05
2023-02-23T09:31:14.049Z,9.20
2023-02-23T09:33:40.512Z,9.32
2023-02-23T09:36:12.912Z,8.55
2023-02-23T09:38:59.054Z,8.45
2023-02-23T09:43:57.991Z,8.10
2023-02-23T09:46:30.568Z,8.50
2023-02-23T09:48:57.813Z,8.80
2023-02-23T09:51:24.863Z,8.52
2023-02-23T09:53:53.841Z,8.95
2023-02-23T09:56:33.092Z,8.75
2023-02-23T09:59:00.609Z,9.23
2023-02-23T10:01:42.192Z,9.25
2023-02-23T10:04:28.903Z,8.48
2023-02-23T10:06:58.496Z,8.75
2023-02-23T10:09:37.451Z,9.18
2023-02-23T10:12:03.831Z,8.70
2023-02-23T10:14:36.510Z,9.50
2023-02-23T10:17:32.482Z,8.77
2023-02-23T10:20:01.645Z,8.77
2023-02-23T10:22:28.756Z,8.63
2023-02-23T10:25:04.839Z,9.18
2023-02-23T10:27:38.132Z,9.77
2023-02-23T10:30:13.092Z,9.25
2023-02-23T10:32:51.505Z,10.20
2023-02-23T10:35:20.567Z,9.77
2023-02-23T10:37:47.492Z,9.63
2023-02-23T10:40:16.072Z,9.15
2023-02-23T10:42:42.467Z,9.55
2023-02-23T10:45:18.682Z,9.98
2023-02-23T10:47:45.851Z,9.27
2023-02-23T10:50:13.527Z,9.43
2023-02-23T10:52:45.434Z,9.93
2023-02-23T10:55:31.199Z,10.27
2023-02-23T10:58:02.564Z,10.77
2023-02-23T11:00:33.054Z,11.02
2023-02-23T11:03:00.720Z,11.68
2023-02-23T11:05:56.550Z,11.15
2023-02-23T11:08:25.243Z,11.98
2023-02-23T11:10:55.693Z,11.88
2023-02-23T11:13:29.836Z,12.57
2023-02-23T11:16:00.584Z,13.75
2023-02-23T11:18:27.460Z,14.70
2023-02-23T11:20:54.803Z,13.07
2023-02-23T11:23:31.660Z,12.65
2023-02-23T11:26:02.492Z,13.63
2023-02-23T11:28:36.336Z,14.77
2023-02-23T11:31:04.800Z,14.88
2023-02-23T11:33:35.909Z,14.82
2023-02-23T11:36:25.613Z,14.70
2023-02-23T11:39:01.082Z,16.27
2023-02-23T11:41:27.658Z,14.90
2023-02-23T11:43:58.129Z,15.27
2023-02-23T11:46:25.149Z,17.63
2023-02-23T11:48:52.914Z,14.75
2023-02-23T11:51:31.633Z,14.40
2023-02-23T11:53:58.441Z,12.63
2023-02-23T11:56:25.786Z,14.02
2023-02-23T11:58:58.663Z,14.15
2023-02-23T12:01:54.351Z,15.18
2023-02-23T12:04:31.092Z,13.87
2023-02-23T12:07:16.137Z,14.00
2023-02-23T12:09:43.195Z,13.98
2023-02-23T12:12:12.444Z,13.57
2023-02-23T12:14:42.259Z,14.15
2023-02-23T12:17:14.528Z,14.02
2023-02-23T12:19:45.244Z,12.95
2023-02-23T12:22:13.860Z,15.10
2023-02-23T12:24:56.431Z,13.55
2023-02-23T12:27:38.117Z,12.73
2023-02-23T12:30:19.513Z,13.50
2023-02-23T12:32:49.389Z,13.35
2023-02-23T12:35:21.947Z,12.18
2023-02-23T12:37:51.253Z,13.10
2023-02-23T12:40:30.953Z,13.30
2023-02-23T12:43:04.823Z,12.45
2023-02-23T12:45:37.246Z,12.60
2023-02-23T12:48:22.563Z,14.38
2023-02-23T12:50:53.615Z,13.83
2023-02-23T12:53:22.354Z,12.63
2023-02-23T12:56:04.555Z,13.88
2023-02-23T12:58:36.970Z,13.55
2023-02-23T13:01:12.947Z,14.13
2023-02-23T13:03:53.677Z,14.85
2023-02-23T13:06:30.479Z,14.85
2023-02-23T13:09:12.443Z,14.32
2023-02-23T13:11:57.654Z,14.32
2023-02-23T13:14:39.931Z,15.63
2023-02-23T13:17:17.206Z,15.15
2023-02-23T13:19:56.265Z,15.13
2023-02-23T13:22:49.227Z,16.08
2023-02-23T13:25:24.612Z,15.93
2023-02-23T13:27:57.724Z,16.30
2023-02-23T13:30:24.149Z,15.77
2023-02-23T13:32:50.652Z,15.10
2023-02-23T13:35:19.070Z,16.83
2023-02-23T13:37:51.488Z,16.52
2023-02-23T13:40:36.272Z,15.65
2023-02-23T13:43:17.643Z,15.57
2023-02-23T13:45:59.619Z,14.85
2023-02-23T13:48:56.769Z,15.63
2023-02-23T13:51:29.058Z,16.27
2023-02-23T13:54:00.692Z,16.67
2023-02-23T13:56:30.903Z,16.05
2023-02-23T13:59:02.090Z,16.80
2023-02-23T14:01:43.823Z,15.55
2023-02-23T14:04:14.971Z,15.57
2023-02-23T14:06:50.784Z,16.73
2023-02-23T14:09:23.972Z,15.45
2023-02-23T14:12:02.170Z,15.48
2023-02-23T14:14:31.884Z,16.25
2023-02-23T14:17:21.324Z,16.27
2023-02-23T14:19:50.714Z,15.88
2023-02-23T14:22:18.556Z,15.60
2023-02-23T14:24:44.978Z,14.30
2023-02-23T14:27:40.241Z,15.50
2023-02-23T14:30:10.276Z,15.60
2023-02-23T14:32:40.909Z,17.13
2023-02-23T14:35:27.725Z,15.50
2023-02-23T14:38:00.168Z,16.88
2023-02-23T14:40:31.998Z,16.60
2023-02-23T14:43:00.630Z,16.92
2023-02-23T14:45:29.554Z,16.30
2023-02-23T14:47:57.405Z,16.10
2023-02-23T14:50:34.887Z,17.42
2023-02-23T14:53:04.467Z,17.27
2023-02-23T14:55:33.207Z,16.55
2023-02-23T14:58:00.388Z,17.70
2023-02-23T15:00:32.610Z,16.08
2023-02-23T15:03:00.715Z,16.40
2023-02-23T15:05:29.215Z,16.50
2023-02-23T15:07:58.724Z,16.42
2023-02-23T15:10:29.464Z,17.08
2023-02-23T15:12:56.415Z,18.55
2023-02-23T15:15:24.568Z,18.00
2023-02-23T15:17:53.412Z,18.10
2023-02-23T15:20:32.458Z,17.85
2023-02-23T15:23:00.149Z,19.00
2023-02-23T15:25:34.472Z,19.10
2023-02-23T15:28:10.149Z,20.10
2023-02-23T15:35:30.000Z,21.10
2023-02-23T15:38:11.192Z,23.10
2023-02-23T15:40:44.927Z,24.13
2023-02-23T15:43:11.645Z,27.15
2023-02-23T15:46:04.505Z,26.98
2023-02-23T15:48:40.511Z,25.95
2023-02-23T15:51:07.106Z,26.40
2023-02-23T15:53:35.425Z,28.17
2023-02-23T15:56:22.619Z,30.17
2023-02-23T15:58:57.081Z,30.80
2023-02-23T16:01:28.438Z,30.50
2023-02-23T16:03:57.148Z,31.67
2023-02-23T16:06:25.647Z,30.45
2023-02-23T16:09:06.220Z,32.40
2023-02-23T16:11:36.094Z,31.05
2023-02-23T16:14:05.518Z,29.52
2023-02-23T16:16:35.530Z,27.80
2023-02-23T16:19:02.753Z,28.50
2023-02-23T16:21:34.851Z,28.42
2023-02-23T16:24:06.312Z,29.05
2023-02-23T16:26:41.401Z,29.33
2023-02-23T16:29:11.005Z,30.00
2023-02-23T16:31:44.713Z,27.10
2023-02-23T16:34:38.098Z,23.88
2023-02-23T16:37:18.166Z,22.27
2023-02-23T16:39:44.823Z,19.63
2023-02-23T16:42:21.209Z,20.42
2023-02-23T16:44:48.449Z,20.30
2023-02-23T16:47:23.804Z,20.42
2023-02-23T16:49:50.691Z,22.83
2023-02-23T16:52:18.258Z,24.73
2023-02-23T16:54:47.410Z,23.08
2023-02-23T16:57:22.423Z,25.90
2023-02-23T16:59:50.689Z,25.10
2023-02-23T17:02:22.932Z,26.02
2023-02-23T17:04:49.971Z,28.13
2023-02-23T17:07:16.839Z,28.25
2023-02-23T17:09:43.500Z,29.48
2023-02-23T17:12:11.638Z,30.17
2023-02-23T17:14:38.406Z,30.75
2023-02-23T17:17:04.945Z,30.67
2023-02-23T17:19:31.321Z,32.53
2023-02-23T17:21:57.747Z,31.38
2023-02-23T17:24:26.092Z,33.03
2023-02-23T17:26:53.400Z,32.92
2023-02-23T17:29:20.055Z,34.42
2023-02-23T17:31:46.644Z,33.85
2023-02-23T17:34:15.635Z,34.15
2023-02-23T17:36:42.039Z,31.48
2023-02-23T17:39:10.119Z,33.45
2023-02-23T17:41:37.074Z,31.42
2023-02-23T17:44:06.005Z,31.45
2023-02-23T17:46:32.790Z,28.35
2023-02-23T17:48:59.224Z,27.70
2023-02-23T17:51:25.805Z,23.73
2023-02-23T17:53:52.287Z,23.17
2023-02-23T17:56:20.118Z,23.60
2023-02-23T17:58:47.099Z,24.83
2023-02-23T18:01:13.939Z,24.45
2023-02-23T18:03:40.539Z,25.10
2023-02-23T18:06:08.465Z,24.27
2023-02-23T18:08:36.097Z,25.35
2023-02-23T18:11:02.774Z,28.20
2023-02-23T18:13:30.244Z,29.95
2023-02-23T18:16:06.441Z,29.35
2023-02-23T18:18:33.064Z,30.80
2023-02-23T18:21:00.473Z,32.22
2023-02-23T18:23:28.969Z,35.00
2023-02-23T18:25:55.482Z,35.17
2023-02-23T18:28:21.873Z,36.25
2023-02-23T18:30:48.341Z,35.78
2023-02-23T18:33:14.980Z,38.03
2023-02-23T18:35:42.631Z,37.28
2023-02-23T18:38:11.608Z,36.42
2023-02-23T18:40:38.764Z,37.22
2023-02-23T18:43:05.382Z,36.10
2023-02-23T18:45:31.814Z,36.60
2023-02-23T18:47:58.294Z,35.55
2023-02-23T18:50:26.176Z,37.25
2023-02-23T18:52:56.599Z,35.90
2023-02-23T18:55:23.473Z,37.05
2023-02-23T18:57:51.273Z,38.15
2023-02-23T19:00:18.729Z,36.53
2023-02-23T19:02:48.801Z,35.78
2023-02-23T19:05:16.249Z,36.88
2023-02-23T19:07:42.783Z,36.20
2023-02-23T19:10:12.250Z,36.22
2023-02-23T19:12:39.092Z,37.28
2023-02-23T19:15:07.271Z,36.42
2023-02-23T19:17:34.110Z,35.88
2023-02-23T19:20:00.670Z,36.08
2023-02-23T19:22:28.100Z,35.78
2023-02-23T19:24:54.493Z,36.03
2023-02-23T19:27:21.181Z,35.55
2023-02-23T19:29:47.649Z,35.38
2023-02-23T19:32:16.268Z,34.13
2023-02-23T19:34:43.744Z,35.20
2023-02-23T19:37:10.179Z,35.50
2023-02-23T19:39:36.683Z,34.88
2023-02-23T19:42:03.220Z,38.15
2023-02-23T19:44:30.066Z,42.15
2023-02-23T19:46:57.243Z,38.40
2023-02-23T19:49:24.182Z,40.80
2023-02-23T19:51:52.916Z,39.15
2023-02-23T19:54:19.730Z,47.08
2023-02-23T19:56:46.263Z,46.25
2023-02-23T19:59:12.774Z,46.70
2023-02-23T20:01:39.304Z,46.72
2023-02-23T20:04:07.026Z,52.55
2023-02-23T20:06:36.139Z,52.83
2023-02-23T20:09:04.660Z,55.97
2023-02-23T20:11:32.541Z,54.33
2023-02-23T20:14:00.430Z,56.40
2023-02-23T20:16:29.415Z,56.95
2023-02-23T20:18:56.528Z,55.90
2023-02-23T20:21:24.139Z,57.85
2023-02-23T20:23:51.220Z,57.95
2023-02-23T20:26:19.330Z,57.88
2023-02-23T20:28:45.658Z,58.30
2023-02-23T20:31:16.717Z,57.97
2023-02-23T20:33:43.436Z,56.60
2023-02-23T20:36:12.050Z,57.53
2023-02-23T20:38:38.671Z,56.45
2023-02-23T20:41:05.153Z,55.67
2023-02-23T20:43:31.552Z,57.90
2023-02-23T20:46:00.895Z,55.28
2023-02-23T20:48:28.049Z,53.13
2023-02-23T20:50:55.323Z,49.10
2023-02-23T20:53:22.320Z,46.85
2023-02-23T20:55:49.155Z,46.55
2023-02-23T20:58:17.780Z,46.63
2023-02-23T21:00:44.366Z,45.03
2023-02-23T21:03:10.721Z,43.45
2023-02-23T21:05:40.399Z,44.13
2023-02-23T21:08:07.935Z,42.65
2023-02-23T21:10:36.494Z,40.35
2023-02-23T21:13:03.765Z,39.47
2023-02-23T21:15:32.742Z,37.85
2023-02-23T21:17:59.534Z,36.95
2023-02-23T21:20:27.808Z,35.42
2023-02-23T21:22:54.616Z,34.92
2023-02-23T21:25:21.977Z,30.95
2023-02-23T21:27:49.842Z,32.22
2023-02-23T21:30:19.593Z,29.90
2023-02-23T21:32:46.779Z,28.50
2023-02-23T21:35:13.238Z,28.13
2023-02-23T21:37:40.757Z,27.30
2023-02-23T21:40:10.596Z,26.33
2023-02-23T21:42:37.962Z,26.27
2023-02-23T21:45:04.515Z,26.58
2023-02-23T21:47:33.948Z,23.48
2023-02-23T21:50:00.448Z,24.02
2023-02-23T21:52:26.863Z,24.27
2023-02-23T21:54:53.315Z,22.13
2023-02-23T21:57:22.695Z,21.50
2023-02-23T21:59:49.646Z,21.75
2023-02-23T22:02:16.150Z,21.25
2023-02-23T22:04:45.596Z,20.58
2023-02-23T22:07:12.038Z,19.63
2023-02-23T22:09:38.409Z,19.27
2023-02-23T22:12:05.659Z,37.55
2023-02-23T22:14:32.084Z,39.72
2023-02-23T22:16:58.779Z,40.88
2023-02-23T22:19:25.188Z,39.90
2023-02-23T22:21:51.602Z,38.97
2023-02-23T22:24:18.032Z,37.95
2023-02-23T22:26:54.389Z,33.85
2023-02-23T22:29:21.661Z,34.05
2023-02-23T22:31:48.153Z,31.95
2023-02-23T22:34:14.718Z,33.70
2023-02-23T22:36:41.124Z,33.97
2023-02-23T22:39:09.657Z,32.63
2023-02-23T22:41:42.315Z,29.67
2023-02-23T22:44:09.616Z,27.50
2023-02-23T22:46:36.098Z,28.63
2023-02-23T22:49:03.508Z,28.20
2023-02-23T22:51:30.174Z,30.05
2023-02-23T22:53:56.804Z,28.88
2023-02-23T22:56:23.651Z,31.52
2023-02-23T22:58:52.638Z,29.38
2023-02-23T23:01:20.230Z,30.52
2023-02-23T23:03:47.003Z,28.45
2023-02-23T23:06:16.501Z,28.65
2023-02-23T23:08:44.709Z,29.35
2023-02-23T23:11:19.148Z,29.95
2023-02-23T23:13:48.436Z,30.70
2023-02-23T23:16:30.299Z,31.08
2023-02-23T23:19:07.838Z,30.80
2023-02-23T23:21:34.842Z,30.92
2023-02-23T23:24:02.191Z,32.75
2023-02-23T23:26:28.940Z,34.92
2023-02-23T23:28:57.826Z,34.55
2023-02-23T23:31:28.253Z,36.17
2023-02-23T23:33:55.811Z,36.35
2023-02-23T23:36:24.599Z,36.47
2023-02-23T23:38:51.645Z,35.13
2023-02-23T23:41:19.127Z,35.13
2023-02-23T23:43:46.439Z,35.13
2023-02-23T23:46:22.755Z,33.65
2023-02-23T23:48:49.751Z,32.65
2023-02-23T23:51:16.087Z,32.17
2023-02-23T23:53:42.498Z,29.25
2023-02-23T23:56:10.681Z,28.80
2023-02-23T23:58:37.674Z,27.35
